sensor_id;sensor_type;location;lat;lon;timestamp;temperature;humidity
40249;DHT22;25969;49.970;11.062;2023-08-08T04:09:43;10.70;99.90
40249;DHT22;25969;49.970;11.062;2023-08-08T04:19:44;10.70;99.90
40249;DHT22;25969;49.970;11.062;2023-08-08T04:29:45;11.10;99.90
40249;DHT22;25969;49.970;11.062;2023-08-08T04:39:45;11.20;99.90
40249;DHT22;25969;49.970;11.062;2023-08-08T04:49:46;11.40;99.90
40249;DHT22;25969;49.970;11.062;2023-08-08T04:59:47;11.50;99.90
40249;DHT22;25969;49.970;11.062;2023-08-08T05:09:48;11.80;99.90
40249;DHT22;25969;49.970;11.062;2023-08-08T05:19:48;12.00;99.90
40249;DHT22;25969;49.970;11.062;2023-08-08T05:29:49;11.90;99.90
40249;DHT22;25969;49.970;11.062;2023-08-08T05:39:50;11.70;99.90
40249;DHT22;25969;49.970;11.062;2023-08-08T05:49:51;11.70;99.90
40249;DHT22;25969;49.970;11.062;2023-08-08T05:59:52;12.10;99.90
40249;DHT22;25969;49.970;11.062;2023-08-08T06:09:52;12.40;99.90
40249;DHT22;25969;49.970;11.062;2023-08-08T06:19:53;12.90;99.90
40249;DHT22;25969;49.970;11.062;2023-08-08T06:29:55;13.20;99.90
40249;DHT22;25969;49.970;11.062;2023-08-08T06:39:56;13.30;99.90
40249;DHT22;25969;49.970;11.062;2023-08-08T06:50:16;13.60;99.90
40249;DHT22;25969;49.970;11.062;2023-08-08T07:00:16;14.20;99.90
40249;DHT22;25969;49.970;11.062;2023-08-08T07:10:18;14.30;99.90
40249;DHT22;25969;49.970;11.062;2023-08-08T07:20:19;14.80;99.90
40249;DHT22;25969;49.970;11.062;2023-08-08T07:30:20;15.20;99.90
40249;DHT22;25969;49.970;11.062;2023-08-08T07:40:21;15.90;99.90
40249;DHT22;25969;49.970;11.062;2023-08-08T07:50:22;15.70;99.90
40249;DHT22;25969;49.970;11.062;2023-08-08T08:00:22;16.50;99.90
40249;DHT22;25969;49.970;11.062;2023-08-08T08:10:23;16.80;99.90
40249;DHT22;25969;49.970;11.062;2023-08-08T08:20:24;17.20;99.90
40249;DHT22;25969;49.970;11.062;2023-08-08T08:30:25;17.80;97.00
40249;DHT22;25969;49.970;11.062;2023-08-08T08:40:28;18.10;93.40
40249;DHT22;25969;49.970;11.062;2023-08-08T08:50:31;18.70;90.10
40249;DHT22;25969;49.970;11.062;2023-08-08T09:00:33;19.10;83.80
40249;DHT22;25969;49.970;11.062;2023-08-08T09:10:34;19.90;80.90
40249;DHT22;25969;49.970;11.062;2023-08-08T09:20:37;19.90;80.70
40249;DHT22;25969;49.970;11.062;2023-08-08T09:30:37;20.70;72.50
40249;DHT22;25969;49.970;11.062;2023-08-08T09:40:38;21.10;71.30
40249;DHT22;25969;49.970;11.062;2023-08-08T09:50:40;20.10;67.70
40249;DHT22;25969;49.970;11.062;2023-08-08T10:00:41;21.40;62.10
40249;DHT22;25969;49.970;11.062;2023-08-08T10:10:45;21.70;57.60
40249;DHT22;25969;49.970;11.062;2023-08-08T10:20:50;26.10;52.10
40249;DHT22;25969;49.970;11.062;2023-08-08T10:30:55;23.60;55.40
40249;DHT22;25969;49.970;11.062;2023-08-08T10:40:59;21.70;57.30
40249;DHT22;25969;49.970;11.062;2023-08-08T10:51:00;22.70;52.70
40249;DHT22;25969;49.970;11.062;2023-08-08T11:01:02;22.70;53.10
40249;DHT22;25969;49.970;11.062;2023-08-08T11:11:06;25.80;47.80
40249;DHT22;25969;49.970;11.062;2023-08-08T11:21:10;26.60;45.20
40249;DHT22;25969;49.970;11.062;2023-08-08T11:31:12;24.50;48.20
40249;DHT22;25969;49.970;11.062;2023-08-08T11:41:15;25.40;47.80
40249;DHT22;25969;49.970;11.062;2023-08-08T11:51:16;22.60;51.30
40249;DHT22;25969;49.970;11.062;2023-08-08T12:01:25;22.40;51.60
40249;DHT22;25969;49.970;11.062;2023-08-08T12:11:27;21.60;54.70
40249;DHT22;25969;49.970;11.062;2023-08-08T12:21:28;22.30;51.90
40249;DHT22;25969;49.970;11.062;2023-08-08T12:31:29;22.40;51.70
40249;DHT22;25969;49.970;11.062;2023-08-08T12:41:30;21.90;53.10
40249;DHT22;25969;49.970;11.062;2023-08-08T12:51:30;22.30;51.20
40249;DHT22;25969;49.970;11.062;2023-08-08T13:01:31;21.50;52.60
40249;DHT22;25969;49.970;11.062;2023-08-08T13:11:32;21.80;52.20
40249;DHT22;25969;49.970;11.062;2023-08-08T13:21:33;23.00;51.20
40249;DHT22;25969;49.970;11.062;2023-08-08T13:31:34;22.80;50.90
40249;DHT22;25969;49.970;11.062;2023-08-08T13:41:35;23.90;48.60
40249;DHT22;25969;49.970;11.062;2023-08-08T13:51:36;24.10;48.30
40249;DHT22;25969;49.970;11.062;2023-08-08T14:01:37;21.30;53.60
40249;DHT22;25969;49.970;11.062;2023-08-08T14:11:38;21.30;53.00
40249;DHT22;25969;49.970;11.062;2023-08-08T14:21:38;21.90;54.20
40249;DHT22;25969;49.970;11.062;2023-08-08T14:31:39;21.20;52.70
40249;DHT22;25969;49.970;11.062;2023-08-08T14:41:40;21.00;53.90
40249;DHT22;25969;49.970;11.062;2023-08-08T14:51:41;21.00;54.10
40249;DHT22;25969;49.970;11.062;2023-08-08T15:01:42;20.90;54.60
40249;DHT22;25969;49.970;11.062;2023-08-08T15:11:43;20.50;55.90
40249;DHT22;25969;49.970;11.062;2023-08-08T15:21:44;19.90;57.90
40249;DHT22;25969;49.970;11.062;2023-08-08T15:31:44;20.00;60.00
40249;DHT22;25969;49.970;11.062;2023-08-08T15:41:45;19.10;59.40
40249;DHT22;25969;49.970;11.062;2023-08-08T15:51:46;18.80;60.50
40249;DHT22;25969;49.970;11.062;2023-08-08T16:01:46;18.40;62.30
40249;DHT22;25969;49.970;11.062;2023-08-08T16:11:47;18.20;65.60
40249;DHT22;25969;49.970;11.062;2023-08-08T16:21:48;18.10;66.00
40249;DHT22;25969;49.970;11.062;2023-08-08T16:31:48;18.00;67.10
40249;DHT22;25969;49.970;11.062;2023-08-08T16:41:49;18.40;67.70
40249;DHT22;25969;49.970;11.062;2023-08-08T16:51:50;18.20;69.20
40249;DHT22;25969;49.970;11.062;2023-08-08T17:01:51;18.20;68.90
40249;DHT22;25969;49.970;11.062;2023-08-08T17:11:52;18.20;67.50
40249;DHT22;25969;49.970;11.062;2023-08-08T17:21:53;17.70;70.20
40249;DHT22;25969;49.970;11.062;2023-08-08T17:31:56;17.40;71.90
40249;DHT22;25969;49.970;11.062;2023-08-08T17:41:57;17.20;72.50
40249;DHT22;25969;49.970;11.062;2023-08-08T17:51:58;17.20;72.30
40249;DHT22;25969;49.970;11.062;2023-08-08T18:01:58;17.30;69.90
40249;DHT22;25969;49.970;11.062;2023-08-08T18:11:59;17.20;69.10
40249;DHT22;25969;49.970;11.062;2023-08-08T18:22:00;17.00;71.90
40249;DHT22;25969;49.970;11.062;2023-08-08T18:32:02;17.00;73.20
40249;DHT22;25969;49.970;11.062;2023-08-08T18:42:03;16.90;72.90
40249;DHT22;25969;49.970;11.062;2023-08-08T18:52:05;16.70;74.20
40249;DHT22;25969;49.970;11.062;2023-08-08T19:02:05;16.60;75.00
40249;DHT22;25969;49.970;11.062;2023-08-08T19:12:16;16.50;77.00
40249;DHT22;25969;49.970;11.062;2023-08-08T19:22:17;16.40;77.80
40249;DHT22;25969;49.970;11.062;2023-08-08T19:32:18;16.20;79.10
40249;DHT22;25969;49.970;11.062;2023-08-08T19:42:19;16.10;80.50
40249;DHT22;25969;49.970;11.062;2023-08-08T19:52:20;16.00;81.40
40249;DHT22;25969;49.970;11.062;2023-08-08T20:02:23;16.00;81.30
40249;DHT22;25969;49.970;11.062;2023-08-08T20:12:24;15.90;82.00
40249;DHT22;25969;49.970;11.062;2023-08-08T20:22:24;15.70;83.90
40249;DHT22;25969;49.970;11.062;2023-08-08T20:32:25;15.60;84.60
40249;DHT22;25969;49.970;11.062;2023-08-08T20:42:26;15.70;84.00
40249;DHT22;25969;49.970;11.062;2023-08-08T20:52:27;15.80;83.70
40249;DHT22;25969;49.970;11.062;2023-08-08T21:02:28;15.80;84.10
40249;DHT22;25969;49.970;11.062;2023-08-08T21:12:28;15.80;85.10
40249;DHT22;25969;49.970;11.062;2023-08-08T21:22:29;15.70;86.20
40249;DHT22;25969;49.970;11.062;2023-08-08T21:32:30;15.80;85.90
40249;DHT22;25969;49.970;11.062;2023-08-08T21:42:30;15.80;86.30
40249;DHT22;25969;49.970;11.062;2023-08-08T21:52:31;15.60;87.70
